Time;durP1;ratioP1;P1;durP2;ratioP2;P2;SDS_P1;SDS_P2;PMS_P1;PMS_P2;Temp;Humidity;BMP_temperature;BMP_pressure;BME280_temperature;BME280_humidity;BME280_pressure;Samples;Min_cycle;Max_cycle;Signal;HPM_P1;HPM_P2
2021/10/23 00:01:35;;;;;;;3.20;1.00;;;12.50;67.00;;;;;;2332426;53;21887;-70
2021/10/23 00:04:02;;;;;;;3.33;1.20;;;12.50;67.00;;;;;;2331092;54;20953;-68
2021/10/23 00:06:28;;;;;;;2.70;0.95;;;12.50;67.00;;;;;;2353024;54;21126;-73
2021/10/23 00:08:56;;;;;;;2.97;0.85;;;12.50;67.00;;;;;;2346520;53;21022;-67
2021/10/23 00:11:22;;;;;;;2.90;0.82;;;12.50;67.10;;;;;;2536023;52;21050;-72
2021/10/23 00:13:49;;;;;;;2.47;0.75;;;12.40;67.10;;;;;;2550103;53;20998;-71
2021/10/23 00:16:15;;;;;;;1.83;0.73;;;12.40;67.10;;;;;;2341446;53;20994;-68
2021/10/23 00:18:42;;;;;;;2.53;1.02;;;12.40;67.20;;;;;;2348180;53;21009;-74
2021/10/23 00:21:08;;;;;;;2.95;1.00;;;12.40;67.20;;;;;;2307148;54;21076;-72
2021/10/23 00:23:35;;;;;;;2.67;0.93;;;12.40;67.20;;;;;;2337711;54;21808;-67
2021/10/23 00:26:01;;;;;;;3.62;1.10;;;12.40;67.30;;;;;;2342045;53;20996;-70
2021/10/23 00:28:27;;;;;;;3.28;1.05;;;12.40;67.40;;;;;;2317885;54;21065;-70
2021/10/23 00:30:54;;;;;;;2.35;1.02;;;12.40;67.40;;;;;;2358282;53;20972;-70
2021/10/23 00:33:20;;;;;;;3.03;1.00;;;12.30;67.40;;;;;;2550700;52;20976;-69
2021/10/23 00:35:46;;;;;;;2.65;0.95;;;12.30;67.40;;;;;;2448093;52;21006;-68
2021/10/23 00:38:13;;;;;;;5.45;1.05;;;12.30;67.50;;;;;;2343203;53;21011;-69
2021/10/23 00:40:39;;;;;;;2.95;1.10;;;12.40;67.60;;;;;;2437272;52;20930;-69
2021/10/23 00:43:05;;;;;;;5.47;1.02;;;12.30;67.60;;;;;;2335206;53;21917;-71
2021/10/23 00:45:33;;;;;;;4.22;1.08;;;12.30;67.70;;;;;;2318237;54;21124;-70
2021/10/23 00:48:00;;;;;;;3.60;1.25;;;12.30;67.70;;;;;;2337519;53;21092;-68
2021/10/23 00:50:27;;;;;;;2.30;1.02;;;12.30;67.70;;;;;;2323153;54;20961;-69
2021/10/23 00:52:53;;;;;;;1.58;0.70;;;12.30;67.70;;;;;;2436641;53;20942;-69
2021/10/23 00:55:19;;;;;;;2.50;0.75;;;12.30;67.70;;;;;;2355824;53;20953;-69
2021/10/23 00:57:48;;;;;;;3.92;0.90;;;12.30;67.70;;;;;;2316858;54;21013;-72
2021/10/23 01:00:14;;;;;;;3.08;0.90;;;12.30;67.70;;;;;;2333973;53;21511;-73
2021/10/23 01:02:41;;;;;;;2.42;1.00;;;12.30;67.70;;;;;;2344449;53;21074;-66
2021/10/23 01:05:08;;;;;;;4.03;1.42;;;12.30;67.70;;;;;;2342717;53;21027;-71
2021/10/23 01:07:34;;;;;;;2.65;1.08;;;12.30;67.80;;;;;;2425787;53;21041;-70
2021/10/23 01:10:06;;;;;;;3.20;0.98;;;12.30;67.80;;;;;;2418263;53;20942;-70
2021/10/23 01:12:37;;;;;;;3.80;1.00;;;12.30;67.90;;;;;;2302337;55;21790;-70
2021/10/23 01:16:57;;;;;;;3.22;1.00;;;12.30;67.90;;;;;;2343554;54;20999;-69
2021/10/23 01:19:24;;;;;;;2.97;1.08;;;12.30;66.90;;;;;;2348056;53;21265;-69
2021/10/23 01:21:52;;;;;;;3.35;0.90;;;12.20;68.00;;;;;;2347218;53;21323;-68
2021/10/23 01:24:18;;;;;;;2.47;0.88;;;12.30;68.10;;;;;;2329455;54;21000;-72
2021/10/23 01:26:45;;;;;;;2.22;0.80;;;12.20;68.00;;;;;;2465505;52;20996;-69
2021/10/23 01:29:13;;;;;;;2.90;1.00;;;12.20;68.00;;;;;;2339218;53;20971;-69
2021/10/23 01:31:40;;;;;;;3.35;1.00;;;12.20;68.00;;;;;;2335628;53;21045;-70
2021/10/23 01:34:14;;;;;;;3.33;0.80;;;12.20;68.00;;;;;;2318735;54;20989;-69
2021/10/23 01:36:50;;;;;;;3.72;1.00;;;12.20;67.80;;;;;;2395696;54;21393;-69
2021/10/23 01:39:17;;;;;;;2.37;0.90;;;12.20;67.90;;;;;;2323630;53;21835;-70
2021/10/23 01:41:43;;;;;;;2.15;0.90;;;12.20;68.00;;;;;;2340498;53;20964;-66
2021/10/23 01:44:12;;;;;;;4.70;1.00;;;12.20;68.10;;;;;;2354378;53;20946;-72
2021/10/23 01:46:39;;;;;;;2.37;0.80;;;12.20;68.10;;;;;;2336009;54;21059;-70
2021/10/23 01:49:07;;;;;;;2.12;1.17;;;12.20;68.10;;;;;;2335631;53;20976;-70
2021/10/23 01:51:39;;;;;;;2.67;0.65;;;12.20;68.20;;;;;;2325384;54;20973;-72
2021/10/23 01:54:07;;;;;;;2.42;0.70;;;12.20;68.00;;;;;;2332864;53;21085;-69
2021/10/23 01:56:34;;;;;;;3.47;0.80;;;12.20;68.20;;;;;;2328508;54;20968;-68
2021/10/23 01:59:00;;;;;;;5.60;0.93;;;12.20;68.30;;;;;;2336211;53;21057;-71
2021/10/23 02:01:27;;;;;;;1.75;0.80;;;12.20;68.30;;;;;;2510915;53;20991;-73
2021/10/23 02:03:53;;;;;;;1.70;0.60;;;12.20;68.30;;;;;;2333443;53;21669;-68
2021/10/23 02:06:19;;;;;;;2.80;0.70;;;12.20;68.30;;;;;;2321067;54;20953;-70
2021/10/23 02:08:46;;;;;;;1.70;0.50;;;12.20;68.30;;;;;;2350168;53;20956;-68
2021/10/23 02:11:12;;;;;;;2.85;0.77;;;12.10;68.20;;;;;;2323403;54;21561;-70
2021/10/23 02:13:39;;;;;;;2.47;0.52;;;12.20;68.30;;;;;;2381138;53;20956;-69
2021/10/23 02:16:05;;;;;;;1.83;0.73;;;12.20;68.30;;;;;;2316654;54;21001;-70
2021/10/23 02:18:32;;;;;;;2.12;0.80;;;12.20;68.30;;;;;;2323940;54;20921;-72
2021/10/23 02:20:59;;;;;;;1.95;0.88;;;12.20;68.30;;;;;;2438449;52;20978;-69
2021/10/23 02:23:26;;;;;;;3.47;1.20;;;12.20;68.30;;;;;;2316190;54;21040;-73
2021/10/23 02:25:53;;;;;;;2.97;0.80;;;12.20;68.30;;;;;;2313201;54;21009;-72
2021/10/23 02:28:19;;;;;;;2.00;0.73;;;12.20;68.30;;;;;;2331475;54;21457;-67
2021/10/23 02:30:50;;;;;;;2.95;1.08;;;12.20;68.30;;;;;;2342416;53;21383;-68
2021/10/23 02:33:16;;;;;;;1.55;0.70;;;12.20;68.20;;;;;;2346412;53;21550;-71
2021/10/23 02:35:43;;;;;;;2.62;0.90;;;12.20;68.40;;;;;;2360776;53;20913;-68
2021/10/23 02:38:10;;;;;;;4.82;1.20;;;12.20;68.40;;;;;;2435166;53;20957;-71
2021/10/23 02:40:38;;;;;;;1.70;0.65;;;12.20;68.40;;;;;;2489223;52;20944;-69
2021/10/23 02:43:04;;;;;;;2.25;0.88;;;12.20;68.40;;;;;;2377493;53;20950;-67
2021/10/23 02:45:31;;;;;;;2.78;0.90;;;12.20;68.40;;;;;;2379840;53;20976;-72
2021/10/23 02:47:57;;;;;;;5.43;1.33;;;12.20;68.50;;;;;;2335300;53;21002;-70
2021/10/23 02:50:24;;;;;;;2.05;0.73;;;12.10;68.30;;;;;;2335049;53;21029;-70
2021/10/23 02:52:50;;;;;;;3.50;0.80;;;12.10;68.40;;;;;;2317891;54;20985;-70
2021/10/23 02:55:17;;;;;;;2.33;0.80;;;12.10;68.40;;;;;;2319577;54;21084;-72
2021/10/23 02:57:44;;;;;;;3.35;0.80;;;12.20;68.50;;;;;;2417728;53;21001;-69
2021/10/23 03:00:11;;;;;;;2.97;1.00;;;12.20;68.60;;;;;;2408009;53;20957;-70
2021/10/23 03:02:38;;;;;;;2.25;0.70;;;12.20;68.60;;;;;;2426367;53;20965;-73
2021/10/23 03:05:07;;;;;;;2.58;0.68;;;12.20;68.60;;;;;;2446013;53;20984;-70
2021/10/23 03:07:33;;;;;;;4.80;1.00;;;12.20;68.60;;;;;;2338319;53;21359;-68
2021/10/23 03:10:01;;;;;;;3.25;0.85;;;12.20;68.60;;;;;;2317701;54;21859;-72
2021/10/23 03:12:28;;;;;;;2.70;0.90;;;12.20;68.50;;;;;;2338955;53;20913;-68
2021/10/23 03:14:55;;;;;;;2.95;0.90;;;12.20;68.50;;;;;;2347527;53;21092;-71
2021/10/23 03:17:21;;;;;;;2.97;0.90;;;12.20;68.50;;;;;;2317484;54;22445;-70
2021/10/23 03:19:48;;;;;;;1.95;0.70;;;12.20;68.50;;;;;;2342131;53;20997;-69
2021/10/23 03:22:14;;;;;;;4.28;1.10;;;12.20;68.50;;;;;;2389498;54;20983;-71
2021/10/23 03:24:40;;;;;;;4.43;1.00;;;12.20;68.60;;;;;;2343077;53;21956;-69
2021/10/23 03:27:07;;;;;;;2.22;0.80;;;12.20;68.60;;;;;;2335300;54;20974;-68
2021/10/23 03:29:34;;;;;;;2.50;0.95;;;12.20;68.60;;;;;;2330358;53;20979;-71
2021/10/23 03:32:00;;;;;;;3.45;1.00;;;12.20;68.60;;;;;;2338320;53;21043;-71
2021/10/23 03:34:26;;;;;;;2.37;1.00;;;12.20;68.60;;;;;;2339052;53;21044;-70
2021/10/23 03:36:52;;;;;;;1.98;0.73;;;12.20;68.60;;;;;;2346015;53;21049;-67
2021/10/23 03:39:19;;;;;;;2.60;0.88;;;12.20;68.70;;;;;;2342412;53;20976;-69
2021/10/23 03:41:46;;;;;;;2.75;1.02;;;12.20;68.70;;;;;;2354968;53;21514;-71
2021/10/23 03:44:15;;;;;;;3.50;0.90;;;12.20;68.60;;;;;;2346834;53;21078;-69
2021/10/23 03:46:42;;;;;;;3.60;0.98;;;12.20;68.60;;;;;;2361325;52;21953;-71
2021/10/23 03:49:09;;;;;;;2.70;0.90;;;12.20;68.60;;;;;;2355751;53;20931;-70
2021/10/23 03:51:35;;;;;;;1.85;0.75;;;12.20;68.60;;;;;;2318510;54;21033;-69
2021/10/23 03:54:02;;;;;;;2.97;0.98;;;12.10;68.50;;;;;;2385495;53;20995;-70
2021/10/23 03:56:28;;;;;;;2.37;0.98;;;12.10;68.50;;;;;;2346716;53;20989;-70
2021/10/23 03:58:55;;;;;;;4.10;1.10;;;12.10;68.50;;;;;;2338428;53;21116;-71
2021/10/23 04:01:21;;;;;;;3.78;1.20;;;12.10;68.50;;;;;;2325305;53;21497;-72
2021/10/23 04:03:48;;;;;;;4.57;1.30;;;12.10;68.60;;;;;;2353038;53;20977;-71
2021/10/23 04:06:17;;;;;;;4.70;1.52;;;12.10;68.70;;;;;;2357014;53;21013;-72
2021/10/23 04:08:43;;;;;;;2.95;1.05;;;12.10;68.70;;;;;;2341093;53;20989;-70
2021/10/23 04:11:13;;;;;;;3.62;1.33;;;12.10;68.70;;;;;;2326058;54;20989;-70
2021/10/23 04:13:39;;;;;;;3.40;1.02;;;12.10;68.60;;;;;;2364477;53;20960;-72
2021/10/23 04:16:05;;;;;;;3.12;1.10;;;12.10;68.70;;;;;;2489129;53;21013;-70
2021/10/23 04:18:33;;;;;;;3.25;1.00;;;12.10;68.70;;;;;;2335553;53;20931;-70
2021/10/23 04:20:59;;;;;;;2.87;0.90;;;12.10;68.60;;;;;;2341047;53;20969;-69
2021/10/23 04:23:26;;;;;;;2.85;0.82;;;12.10;68.60;;;;;;2325341;54;20985;-72
2021/10/23 04:25:52;;;;;;;2.87;0.90;;;12.10;68.70;;;;;;2331664;53;20970;-73
2021/10/23 04:28:19;;;;;;;2.90;0.98;;;12.00;68.60;;;;;;2331134;54;21840;-71
2021/10/23 04:30:45;;;;;;;3.85;1.00;;;12.00;68.70;;;;;;2348651;53;20979;-69
2021/10/23 04:33:12;;;;;;;3.75;1.60;;;12.00;68.80;;;;;;2341281;53;21003;-69
2021/10/23 04:35:39;;;;;;;4.30;1.50;;;12.00;68.80;;;;;;2318737;54;21083;-71
2021/10/23 04:38:05;;;;;;;4.07;1.27;;;12.00;68.80;;;;;;2332307;53;20993;-73
2021/10/23 04:40:33;;;;;;;4.75;1.33;;;12.10;68.90;;;;;;2403763;53;20960;-68
2021/10/23 04:43:11;;;;;;;3.10;1.20;;;12.00;68.80;;;;;;2325783;54;20988;-71
2021/10/23 04:45:40;;;;;;;3.87;1.48;;;12.10;68.70;;;;;;2359715;53;20948;-72
2021/10/23 04:48:07;;;;;;;3.55;1.23;;;12.00;68.80;;;;;;2323523;54;21301;-72
2021/10/23 04:50:34;;;;;;;4.53;1.87;;;12.10;69.00;;;;;;2332573;53;21271;-67
2021/10/23 04:53:03;;;;;;;7.10;1.85;;;12.00;69.00;;;;;;2315029;54;20941;-73
2021/10/23 04:55:30;;;;;;;5.03;1.67;;;12.00;68.90;;;;;;2321908;54;20983;-73
2021/10/23 04:57:57;;;;;;;4.60;1.67;;;12.00;69.10;;;;;;2339753;53;20971;-71
2021/10/23 05:00:24;;;;;;;4.25;1.50;;;12.00;69.10;;;;;;2351418;53;21918;-69
2021/10/23 05:02:51;;;;;;;3.47;1.30;;;12.00;69.10;;;;;;2335599;53;21040;-74
2021/10/23 05:05:17;;;;;;;3.97;1.30;;;12.00;69.10;;;;;;2322634;54;21552;-69
2021/10/23 05:07:44;;;;;;;3.15;1.10;;;12.00;69.10;;;;;;2350068;53;21811;-72
2021/10/23 05:10:13;;;;;;;4.37;1.20;;;12.00;69.10;;;;;;2322123;54;20998;-71
2021/10/23 05:12:40;;;;;;;3.70;1.27;;;12.00;69.10;;;;;;2389857;53;21048;-69
2021/10/23 05:15:07;;;;;;;3.40;1.23;;;12.00;69.20;;;;;;2367908;52;21016;-67
2021/10/23 05:17:33;;;;;;;2.30;1.00;;;12.00;69.30;;;;;;2323286;54;21063;-69
2021/10/23 05:19:59;;;;;;;3.12;0.90;;;12.00;69.30;;;;;;2316579;54;21564;-70
2021/10/23 05:22:26;;;;;;;2.45;1.05;;;12.00;69.30;;;;;;2313512;54;21112;-68
2021/10/23 05:24:52;;;;;;;5.28;1.30;;;12.00;69.40;;;;;;2334730;53;21014;-69
2021/10/23 05:27:19;;;;;;;2.67;1.10;;;12.00;69.30;;;;;;2509183;52;20986;-71
2021/10/23 05:29:45;;;;;;;3.90;1.05;;;12.00;69.30;;;;;;2319766;54;20933;-72
2021/10/23 05:32:11;;;;;;;2.90;1.10;;;12.00;69.30;;;;;;2323026;53;21036;-70
2021/10/23 05:34:38;;;;;;;2.87;1.20;;;12.00;69.30;;;;;;2347542;53;21053;-68
2021/10/23 05:37:05;;;;;;;3.22;1.40;;;12.00;70.00;;;;;;2343639;53;20955;-70
2021/10/23 05:39:31;;;;;;;3.30;1.50;;;12.00;69.40;;;;;;2394123;53;21416;-71
2021/10/23 05:41:58;;;;;;;3.08;1.20;;;12.00;69.30;;;;;;2333525;53;21344;-72
2021/10/23 05:44:24;;;;;;;3.70;1.30;;;12.00;69.40;;;;;;2333796;53;20988;-71
2021/10/23 05:46:51;;;;;;;3.15;1.20;;;12.00;69.40;;;;;;2333226;53;20872;-73
2021/10/23 05:49:17;;;;;;;2.67;1.20;;;12.00;69.40;;;;;;2324742;54;21391;-70
2021/10/23 05:51:44;;;;;;;4.72;1.48;;;12.00;69.50;;;;;;2378228;53;20939;-72
2021/10/23 05:54:10;;;;;;;3.78;1.20;;;11.90;69.40;;;;;;2352513;53;21055;-68
2021/10/23 05:56:37;;;;;;;3.50;1.48;;;12.00;69.50;;;;;;2324213;54;21025;-72
2021/10/23 05:59:13;;;;;;;2.72;1.10;;;11.90;69.30;;;;;;2338747;53;20982;-72
2021/10/23 06:01:44;;;;;;;3.70;1.45;;;11.90;69.30;;;;;;2435169;53;21103;-71
2021/10/23 06:04:11;;;;;;;3.62;1.37;;;12.00;69.20;;;;;;2333153;53;20977;-68
2021/10/23 06:06:38;;;;;;;3.62;1.25;;;11.90;69.30;;;;;;2319482;54;20915;-72
2021/10/23 06:09:05;;;;;;;3.90;1.40;;;11.90;69.40;;;;;;2319904;54;21025;-70
2021/10/23 06:11:32;;;;;;;4.12;1.50;;;11.90;69.40;;;;;;2316541;54;21835;-71
2021/10/23 06:13:59;;;;;;;3.28;1.42;;;11.90;69.40;;;;;;2321094;54;20987;-72
2021/10/23 06:16:26;;;;;;;3.35;1.23;;;11.90;69.40;;;;;;2331530;53;21539;-70
2021/10/23 06:18:52;;;;;;;3.03;1.20;;;11.90;69.40;;;;;;2381066;53;21009;-72
2021/10/23 06:21:19;;;;;;;2.92;1.15;;;11.90;69.40;;;;;;2321040;53;21036;-69
2021/10/23 06:23:46;;;;;;;3.12;1.23;;;11.90;69.50;;;;;;2343807;53;20934;-68
2021/10/23 06:26:13;;;;;;;3.78;1.40;;;11.90;69.50;;;;;;2403086;52;20993;-73
2021/10/23 06:28:39;;;;;;;3.20;1.35;;;11.90;70.20;;;;;;2331196;54;20989;-70
2021/10/23 06:31:06;;;;;;;3.92;0.98;;;11.90;69.50;;;;;;2429536;52;20982;-66
2021/10/23 06:33:34;;;;;;;5.30;1.27;;;11.90;69.50;;;;;;2334192;53;22271;-68
2021/10/23 06:36:01;;;;;;;3.15;1.10;;;11.90;69.60;;;;;;2336322;53;21031;-69
2021/10/23 06:38:27;;;;;;;4.50;1.55;;;11.90;69.60;;;;;;2325328;54;21001;-69
2021/10/23 06:40:55;;;;;;;5.20;1.33;;;11.90;69.60;;;;;;2353708;54;20944;-69
2021/10/23 06:43:25;;;;;;;2.75;1.00;;;11.90;69.50;;;;;;2343806;53;20977;-72
2021/10/23 06:45:52;;;;;;;2.53;0.98;;;11.90;69.50;;;;;;2367244;52;21419;-69
2021/10/23 06:48:18;;;;;;;2.65;1.15;;;11.90;69.60;;;;;;2336583;54;20936;-70
2021/10/23 06:50:46;;;;;;;2.37;1.00;;;11.80;69.50;;;;;;2394695;53;21031;-71
2021/10/23 06:53:12;;;;;;;3.92;1.08;;;11.80;69.60;;;;;;2316744;54;21001;-68
2021/10/23 06:55:39;;;;;;;2.87;1.30;;;11.90;69.60;;;;;;2358789;53;21755;-70
2021/10/23 06:58:05;;;;;;;2.37;0.98;;;11.90;69.60;;;;;;2355771;53;21090;-67
2021/10/23 07:00:34;;;;;;;3.35;1.30;;;11.90;69.70;;;;;;2373059;52;21006;-69
2021/10/23 07:03:01;;;;;;;4.80;1.35;;;11.90;69.80;;;;;;2388622;53;21474;-71
2021/10/23 07:05:28;;;;;;;2.50;1.12;;;11.90;69.90;;;;;;2387247;52;20943;-68
2021/10/23 07:07:55;;;;;;;3.67;1.33;;;11.90;69.80;;;;;;2488449;52;20951;-67
2021/10/23 07:10:22;;;;;;;3.17;1.00;;;11.90;69.70;;;;;;2380774;53;20951;-70
2021/10/23 07:12:48;;;;;;;4.50;1.58;;;11.90;69.80;;;;;;2347816;52;20963;-69
2021/10/23 07:15:14;;;;;;;4.37;1.45;;;11.90;69.90;;;;;;2339304;53;20935;-69
2021/10/23 07:17:43;;;;;;;4.97;1.35;;;12.00;69.90;;;;;;2326758;53;20953;-70
2021/10/23 07:20:11;;;;;;;4.32;1.45;;;11.90;69.80;;;;;;2323443;53;20947;-74
2021/10/23 07:22:38;;;;;;;4.85;1.60;;;12.00;69.80;;;;;;2331302;54;20972;-71
2021/10/23 07:25:05;;;;;;;4.32;1.48;;;12.00;69.80;;;;;;2411347;53;20938;-71
2021/10/23 07:27:32;;;;;;;4.62;1.58;;;12.00;69.80;;;;;;2318091;54;21001;-72
2021/10/23 07:29:58;;;;;;;4.28;1.80;;;12.00;69.90;;;;;;2336218;53;21053;-74
2021/10/23 07:32:25;;;;;;;5.35;1.92;;;12.00;69.90;;;;;;2354586;53;20981;-67
2021/10/23 07:34:51;;;;;;;5.97;2.37;;;12.00;70.00;;;;;;2325913;53;20888;-71
2021/10/23 07:37:17;;;;;;;4.80;2.10;;;12.00;69.90;;;;;;2336694;53;20969;-75
2021/10/23 07:39:44;;;;;;;4.35;2.10;;;12.00;69.90;;;;;;2393314;53;21815;-69
2021/10/23 07:42:11;;;;;;;4.05;2.03;;;12.10;70.00;;;;;;2348134;53;21093;-73
2021/10/23 07:44:38;;;;;;;5.55;2.20;;;12.10;70.00;;;;;;2358431;53;21021;-66
2021/10/23 07:47:07;;;;;;;3.78;2.00;;;12.10;69.90;;;;;;2324398;54;20925;-71
2021/10/23 07:49:33;;;;;;;6.00;2.37;;;12.10;69.90;;;;;;2326306;53;21878;-72
2021/10/23 07:52:00;;;;;;;4.40;1.77;;;12.10;69.90;;;;;;2323005;54;21931;-72
2021/10/23 07:54:27;;;;;;;4.00;1.90;;;12.10;69.90;;;;;;2314401;54;20960;-72
2021/10/23 07:56:54;;;;;;;4.87;1.75;;;12.20;69.90;;;;;;2343729;53;21077;-71
2021/10/23 07:59:21;;;;;;;4.18;1.60;;;12.20;69.90;;;;;;2336114;53;21867;-68
2021/10/23 08:01:48;;;;;;;3.62;1.60;;;12.20;69.80;;;;;;2341330;53;20957;-71
2021/10/23 08:04:23;;;;;;;3.80;1.40;;;12.20;69.80;;;;;;2333475;53;21538;-72
2021/10/23 08:06:49;;;;;;;2.80;1.40;;;12.20;69.80;;;;;;2341222;53;20995;-70
2021/10/23 08:09:16;;;;;;;5.57;1.70;;;12.20;69.90;;;;;;2343403;53;20958;-68
2021/10/23 08:11:43;;;;;;;3.78;1.60;;;12.20;69.90;;;;;;2375552;53;20977;-70
2021/10/23 08:14:11;;;;;;;5.78;1.75;;;12.30;70.10;;;;;;2397413;52;21016;-69
2021/10/23 08:16:37;;;;;;;4.00;1.77;;;12.20;70.10;;;;;;2328373;53;20912;-73
2021/10/23 08:19:04;;;;;;;4.62;1.58;;;12.20;70.20;;;;;;2368877;53;21991;-69
2021/10/23 08:21:31;;;;;;;5.62;2.08;;;12.30;70.20;;;;;;2320297;54;21001;-69
2021/10/23 08:23:58;;;;;;;6.70;2.40;;;12.30;70.10;;;;;;2317706;54;20985;-69
2021/10/23 08:26:25;;;;;;;4.47;1.83;;;12.30;70.10;;;;;;2314533;54;20949;-72
2021/10/23 08:28:51;;;;;;;4.10;1.75;;;12.30;70.20;;;;;;2348946;54;21061;-73
2021/10/23 08:31:17;;;;;;;3.87;1.65;;;12.40;70.40;;;;;;2328463;53;21457;-70
2021/10/23 08:33:45;;;;;;;4.72;1.50;;;12.40;70.50;;;;;;2350541;53;20955;-70
2021/10/23 08:36:12;;;;;;;3.85;1.75;;;12.40;70.70;;;;;;2327214;54;21711;-72
2021/10/23 08:38:38;;;;;;;5.75;2.00;;;12.50;70.90;;;;;;2326648;54;21708;-71
2021/10/23 08:41:06;;;;;;;3.87;1.62;;;12.50;71.00;;;;;;2316684;54;21390;-71
2021/10/23 08:43:34;;;;;;;3.90;1.77;;;12.60;71.00;;;;;;2330213;53;21004;-73
2021/10/23 08:46:01;;;;;;;5.97;1.52;;;12.60;71.10;;;;;;2443884;53;21004;-70
2021/10/23 08:48:28;;;;;;;4.20;1.40;;;12.70;71.30;;;;;;2354683;54;20946;-69
2021/10/23 08:50:54;;;;;;;3.45;1.45;;;12.80;71.50;;;;;;2412805;53;21048;-68
2021/10/23 08:53:32;;;;;;;4.50;1.70;;;12.80;71.70;;;;;;2314694;54;20951;-70
2021/10/23 08:55:59;;;;;;;5.15;2.10;;;12.90;71.70;;;;;;2332480;53;20995;-69
2021/10/23 08:58:26;;;;;;;8.35;2.10;;;13.00;71.70;;;;;;2343183;53;1789382;-74
2021/10/23 09:00:53;;;;;;;4.22;1.60;;;13.00;71.70;;;;;;2344187;53;20983;-70
2021/10/23 09:03:19;;;;;;;5.35;1.67;;;13.10;71.80;;;;;;2333176;53;21047;-72
2021/10/23 09:05:45;;;;;;;2.80;1.40;;;13.20;71.80;;;;;;2336874;53;20958;-69
2021/10/23 09:08:15;;;;;;;3.65;1.65;;;13.30;71.80;;;;;;2341202;53;21062;-68
2021/10/23 09:10:56;;;;;;;3.62;1.77;;;13.40;71.60;;;;;;2330089;54;20983;-68
2021/10/23 09:13:29;;;;;;;5.03;1.83;;;13.50;71.60;;;;;;2328339;53;20965;-68
2021/10/23 09:15:58;;;;;;;6.22;1.95;;;13.50;71.20;;;;;;2334896;53;20961;-69
2021/10/23 09:18:47;;;;;;;3.40;1.25;;;13.60;71.40;;;;;;2337868;53;20908;-68
2021/10/23 09:21:20;;;;;;;4.87;1.70;;;13.70;70.50;;;;;;2335327;53;21076;-70
2021/10/23 09:23:56;;;;;;;3.10;1.50;;;13.80;71.60;;;;;;2314082;54;20965;-70
2021/10/23 09:26:36;;;;;;;6.00;1.92;;;13.90;72.20;;;;;;2443471;53;20936;-68
2021/10/23 09:29:18;;;;;;;5.03;1.73;;;14.00;71.40;;;;;;2321526;54;21046;-68
2021/10/23 09:32:07;;;;;;;4.00;1.62;;;14.20;71.30;;;;;;2314345;54;20989;-69
2021/10/23 09:34:34;;;;;;;4.70;1.62;;;14.30;71.10;;;;;;2385419;53;20989;-72
2021/10/23 09:37:03;;;;;;;6.07;1.70;;;14.40;72.30;;;;;;2322696;54;20957;-68
2021/10/23 09:39:37;;;;;;;5.72;1.65;;;14.50;72.40;;;;;;2353346;53;21874;-71
2021/10/23 09:42:18;;;;;;;6.35;2.08;;;14.70;72.80;;;;;;2319128;54;21843;-69
2021/10/23 09:45:03;;;;;;;3.87;1.90;;;14.80;72.40;;;;;;2317420;54;20949;-69
2021/10/23 09:47:52;;;;;;;5.82;1.95;;;15.10;72.80;;;;;;2337442;53;20974;-72
2021/10/23 09:50:20;;;;;;;5.97;1.73;;;15.30;72.30;;;;;;2414768;53;21763;-69
2021/10/23 09:54:04;;;;;;;5.03;1.77;;;15.50;73.70;;;;;;2325724;53;21608;-69
2021/10/23 09:56:35;;;;;;;4.93;1.90;;;15.70;71.10;;;;;;2336834;53;21119;-68
2021/10/23 09:59:03;;;;;;;4.72;1.83;;;15.80;72.60;;;;;;2322258;54;20984;-69
2021/10/23 10:01:31;;;;;;;4.75;1.40;;;16.00;72.80;;;;;;2340192;53;21861;-69
2021/10/23 10:03:58;;;;;;;5.50;1.62;;;16.00;72.40;;;;;;2344900;54;21015;-69
2021/10/23 10:06:26;;;;;;;5.82;1.52;;;16.10;72.00;;;;;;2311436;54;20980;-69
2021/10/23 10:08:53;;;;;;;4.65;1.30;;;16.20;71.30;;;;;;2337017;53;21011;-69
2021/10/23 10:11:19;;;;;;;4.47;1.35;;;16.30;70.70;;;;;;2335055;53;20994;-68
2021/10/23 10:13:47;;;;;;;4.00;1.42;;;16.30;70.10;;;;;;2339863;53;20966;-70
2021/10/23 10:16:14;;;;;;;4.87;1.45;;;16.30;69.60;;;;;;2381881;52;20974;-69
2021/10/23 10:18:45;;;;;;;4.25;1.52;;;16.20;69.20;;;;;;2320762;53;21254;-69
2021/10/23 10:21:17;;;;;;;5.30;1.73;;;16.20;68.40;;;;;;2342393;53;21016;-72
2021/10/23 10:23:44;;;;;;;4.20;2.00;;;16.20;68.30;;;;;;2352945;53;21233;-69
2021/10/23 10:27:16;;;;;;;8.93;4.55;;;16.10;67.80;;;;;;2341113;53;20958;-71
2021/10/23 10:29:58;;;;;;;6.75;3.20;;;16.00;66.00;;;;;;2339938;53;20954;-69
2021/10/23 10:32:32;;;;;;;4.68;1.87;;;15.90;67.30;;;;;;2351813;53;20996;-70
2021/10/23 10:47:12;;;;;;;4.65;1.35;;;15.70;68.50;;;;;;2343883;53;20973;-69
2021/10/23 10:49:41;;;;;;;3.28;1.37;;;15.60;68.80;;;;;;2330293;54;21093;-68
2021/10/23 10:54:18;;;;;;;7.22;1.50;;;15.60;68.70;;;;;;2346273;54;20987;-68
2021/10/23 10:56:46;;;;;;;4.55;1.40;;;15.70;68.20;;;;;;2343393;53;21682;-69
2021/10/23 10:59:12;;;;;;;3.97;1.42;;;15.80;69.80;;;;;;2326374;54;20989;-70
2021/10/23 11:01:39;;;;;;;4.00;1.62;;;15.80;69.70;;;;;;2477271;52;20964;-69
2021/10/23 11:04:07;;;;;;;3.72;1.65;;;15.90;69.60;;;;;;2319117;53;21011;-68
2021/10/23 11:06:52;;;;;;;3.97;1.92;;;15.90;69.60;;;;;;2372148;53;22181;-69
2021/10/23 11:09:30;;;;;;;4.75;1.20;;;16.00;68.20;;;;;;2346277;53;21062;-69
2021/10/23 11:12:17;;;;;;;5.72;1.67;;;16.00;68.60;;;;;;2348871;53;20997;-69
2021/10/23 11:14:44;;;;;;;3.87;1.35;;;16.10;68.00;;;;;;2343030;53;20953;-69
2021/10/23 11:17:15;;;;;;;3.72;1.30;;;16.10;69.10;;;;;;2357408;53;21426;-70
2021/10/23 11:19:52;;;;;;;4.43;1.40;;;16.10;68.70;;;;;;2386082;52;21038;-70
2021/10/23 11:22:32;;;;;;;4.93;1.20;;;16.20;67.80;;;;;;2350773;53;21466;-70
2021/10/23 11:25:08;;;;;;;4.18;1.33;;;16.20;67.50;;;;;;2345461;53;20978;-70
2021/10/23 11:27:47;;;;;;;5.50;1.30;;;16.20;67.80;;;;;;2348154;53;21002;-70
2021/10/23 11:30:28;;;;;;;5.70;1.85;;;16.20;67.50;;;;;;2352512;53;21779;-71
2021/10/23 11:33:04;;;;;;;4.55;1.77;;;16.20;67.20;;;;;;2357920;53;21017;-68
2021/10/23 11:35:32;;;;;;;3.65;1.20;;;16.20;67.30;;;;;;2331490;53;20979;-70
2021/10/23 11:37:59;;;;;;;5.47;2.20;;;16.20;67.80;;;;;;2339553;53;21762;-69
2021/10/23 11:40:26;;;;;;;5.40;1.80;;;16.20;67.80;;;;;;2349784;53;21021;-69
2021/10/23 11:42:53;;;;;;;4.30;1.85;;;16.20;67.80;;;;;;2304852;54;20969;-69
2021/10/23 11:45:25;;;;;;;8.13;2.33;;;16.20;67.80;;;;;;2331078;53;21086;-71
2021/10/23 11:48:02;;;;;;;6.72;2.30;;;16.20;67.60;;;;;;2411381;52;21561;-71
2021/10/23 11:54:08;;;;;;;6.32;2.53;;;16.30;67.10;;;;;;2361925;52;20980;-68
2021/10/23 11:56:35;;;;;;;4.85;2.40;;;16.40;68.50;;;;;;2321524;54;21055;-69
2021/10/23 11:59:02;;;;;;;5.90;2.45;;;16.40;68.40;;;;;;2567642;52;21867;-71
2021/10/23 12:01:34;;;;;;;7.65;2.28;;;16.50;68.60;;;;;;2463480;53;20965;-70
2021/10/23 12:04:01;;;;;;;4.97;2.33;;;16.50;68.50;;;;;;2337542;54;21031;-68
2021/10/23 12:06:40;;;;;;;9.05;2.30;;;16.60;68.80;;;;;;2334231;53;20907;-68
2021/10/23 12:09:23;;;;;;;6.05;2.20;;;16.60;67.70;;;;;;2343473;53;20992;-69
2021/10/23 12:12:08;;;;;;;3.95;1.75;;;16.70;67.20;;;;;;2340970;53;21014;-68
2021/10/23 12:14:35;;;;;;;3.65;1.40;;;16.70;66.40;;;;;;2385857;52;20959;-73
2021/10/23 12:17:04;;;;;;;5.97;1.75;;;16.70;68.30;;;;;;2349259;53;21624;-72
2021/10/23 12:19:40;;;;;;;5.70;1.50;;;16.70;67.30;;;;;;2330133;54;20961;-71
2021/10/23 12:22:13;;;;;;;3.53;1.60;;;16.70;66.70;;;;;;2322360;54;21064;-73
2021/10/23 12:24:46;;;;;;;2.72;1.00;;;16.70;67.80;;;;;;2355332;53;21704;-71
2021/10/23 12:27:33;;;;;;;3.92;1.55;;;16.70;67.20;;;;;;2464216;53;21460;-69
2021/10/23 12:30:13;;;;;;;4.57;1.60;;;16.70;66.30;;;;;;2355748;53;20986;-69
2021/10/23 12:32:45;;;;;;;3.70;1.30;;;16.70;66.60;;;;;;2344906;52;21669;-68
2021/10/23 12:35:19;;;;;;;4.90;1.48;;;16.70;67.00;;;;;;2341549;54;20960;-68
2021/10/23 12:38:00;;;;;;;3.90;1.27;;;16.80;66.70;;;;;;2321822;54;20909;-73
2021/10/23 12:40:35;;;;;;;3.60;1.27;;;16.70;67.10;;;;;;2325299;54;21122;-72
2021/10/23 12:43:13;;;;;;;3.20;1.37;;;16.70;66.60;;;;;;2336657;53;21064;-68
2021/10/23 12:45:41;;;;;;;3.87;1.25;;;16.80;66.80;;;;;;2586415;52;21007;-69
2021/10/23 12:48:09;;;;;;;3.67;1.50;;;16.80;67.00;;;;;;2346503;53;20991;-69
2021/10/23 12:50:36;;;;;;;5.75;1.40;;;16.80;66.80;;;;;;2347140;53;21028;-71
2021/10/23 12:53:02;;;;;;;3.62;1.40;;;16.80;67.20;;;;;;2325298;53;20969;-69
2021/10/23 12:55:29;;;;;;;3.75;1.30;;;16.90;67.70;;;;;;2553296;53;21334;-71
2021/10/23 12:57:56;;;;;;;4.22;1.73;;;16.90;67.70;;;;;;2328769;53;21006;-69
2021/10/23 13:00:23;;;;;;;4.90;1.60;;;17.00;67.70;;;;;;2372899;53;20989;-68
2021/10/23 13:02:50;;;;;;;3.50;1.25;;;17.10;67.90;;;;;;2343928;53;20935;-68
2021/10/23 13:05:16;;;;;;;2.50;0.95;;;17.20;68.30;;;;;;2329264;53;20946;-70
2021/10/23 13:07:42;;;;;;;4.37;1.48;;;17.30;68.60;;;;;;2326729;53;21021;-69
2021/10/23 13:10:10;;;;;;;4.82;1.55;;;17.40;68.90;;;;;;2346572;53;20941;-69
2021/10/23 13:12:38;;;;;;;3.40;1.30;;;17.50;68.60;;;;;;2329271;53;21345;-72
2021/10/23 13:15:06;;;;;;;4.53;1.12;;;17.70;68.10;;;;;;2460732;52;21937;-67
2021/10/23 13:17:33;;;;;;;3.05;1.20;;;17.70;67.40;;;;;;2336945;53;21454;-68